createdAt,value
2023-01-26T00:00:01.139Z,-0.2
2023-01-26T00:03:01.247Z,-0.2
2023-01-26T00:06:01.105Z,-0.2
2023-01-26T00:09:01.145Z,-0.2
2023-01-26T00:12:01.082Z,-0.2
2023-01-26T00:15:01.075Z,-0.2
2023-01-26T00:18:01.114Z,-0.2
2023-01-26T00:21:01.604Z,-0.2
2023-01-26T00:24:01.272Z,-0.2
2023-01-26T00:27:01.124Z,-0.2
2023-01-26T00:30:01.124Z,-0.2
2023-01-26T00:33:01.115Z,-0.2
2023-01-26T00:36:01.126Z,-0.2
2023-01-26T00:39:01.091Z,-0.2
2023-01-26T00:42:01.136Z,-0.2
2023-01-26T00:45:01.168Z,-0.2
2023-01-26T00:48:01.083Z,-0.2
2023-01-26T00:51:01.116Z,-0.2
2023-01-26T00:54:01.140Z,-0.5
2023-01-26T00:57:01.121Z,-0.5
2023-01-26T01:00:01.139Z,-0.5
2023-01-26T01:03:01.150Z,-0.5
2023-01-26T01:06:01.088Z,-0.5
2023-01-26T01:09:01.151Z,-0.5
2023-01-26T01:12:01.124Z,-0.5
2023-01-26T01:15:01.110Z,-0.5
2023-01-26T01:18:01.083Z,-0.8
2023-01-26T01:21:01.090Z,-0.8
2023-01-26T01:24:01.200Z,-0.8
2023-01-26T01:27:01.177Z,-0.8
2023-01-26T01:30:01.122Z,-0.8
2023-01-26T01:33:01.156Z,-0.8
2023-01-26T01:36:01.082Z,-1.1
2023-01-26T01:39:01.336Z,-1.1
2023-01-26T01:42:01.093Z,-1.1
2023-01-26T01:45:01.102Z,-1.1
2023-01-26T01:48:01.103Z,-1.1
2023-01-26T01:51:01.085Z,-1.1
2023-01-26T01:54:01.106Z,-1.1
2023-01-26T01:57:01.100Z,-1.1
2023-01-26T02:00:01.142Z,-1.1
2023-01-26T02:03:01.132Z,-1.2
2023-01-26T02:06:01.086Z,-1.2
2023-01-26T02:09:01.161Z,-1.2
2023-01-26T02:12:01.129Z,-1.2
2023-01-26T02:15:01.229Z,-1.2
2023-01-26T02:18:01.145Z,-1.2
2023-01-26T02:21:01.147Z,-1.2
2023-01-26T02:24:01.187Z,-1.2
2023-01-26T02:27:01.108Z,-1.2
2023-01-26T02:30:01.077Z,-1.2
2023-01-26T02:33:01.159Z,-1.2
2023-01-26T02:36:01.093Z,-1.2
2023-01-26T02:39:01.094Z,-1.2
2023-01-26T02:42:01.073Z,-1.2
2023-01-26T02:45:01.123Z,-1.2
2023-01-26T02:48:01.124Z,-1.2
2023-01-26T02:51:01.133Z,-1.2
2023-01-26T02:54:01.206Z,-1.2
2023-01-26T02:57:01.123Z,-1.2
2023-01-26T03:00:01.103Z,-1.2
2023-01-26T03:03:01.110Z,-1.2
2023-01-26T03:06:01.218Z,-1
2023-01-26T03:09:01.149Z,-1
2023-01-26T03:12:01.141Z,-1.1
2023-01-26T03:15:01.181Z,-1.1
2023-01-26T03:18:01.166Z,-1.1
2023-01-26T03:21:01.121Z,-1.1
2023-01-26T03:24:01.177Z,-1.1
2023-01-26T03:27:01.121Z,-1.1
2023-01-26T03:30:01.099Z,-1.1
2023-01-26T03:33:01.107Z,-1.1
2023-01-26T03:36:01.149Z,-1.1
2023-01-26T03:39:01.167Z,-1.1
2023-01-26T03:42:01.049Z,-1.1
2023-01-26T03:45:01.146Z,-1.1
2023-01-26T03:48:01.190Z,-1.1
2023-01-26T03:51:01.133Z,-1.1
2023-01-26T03:54:01.103Z,-1.1
2023-01-26T03:57:01.069Z,-1.1
2023-01-26T04:00:01.084Z,-1
2023-01-26T04:03:01.134Z,-1
2023-01-26T04:06:16.810Z,-1
2023-01-26T04:09:01.089Z,-1.1
2023-01-26T04:12:01.231Z,-1.1
2023-01-26T04:15:01.121Z,-1.1
2023-01-26T04:18:01.113Z,-1.1
2023-01-26T04:21:01.172Z,-1.1
2023-01-26T04:24:01.219Z,-1.1
2023-01-26T04:27:01.093Z,-1.1
2023-01-26T04:30:01.129Z,-1.1
2023-01-26T04:33:01.110Z,-1.1
2023-01-26T04:36:01.129Z,-1.1
2023-01-26T04:39:01.177Z,-1.1
2023-01-26T04:42:01.112Z,-1.1
2023-01-26T04:45:01.316Z,-1.1
2023-01-26T04:48:01.086Z,-1.1
2023-01-26T04:51:01.130Z,-1.1
2023-01-26T04:54:01.144Z,-1.1
2023-01-26T04:57:01.126Z,-1.1
2023-01-26T05:00:01.120Z,-1.1
2023-01-26T05:03:01.081Z,-1.1
2023-01-26T05:06:01.091Z,-1.1
2023-01-26T05:09:01.113Z,-1.1
2023-01-26T05:12:01.091Z,-1.1
2023-01-26T05:15:01.075Z,-1.1
2023-01-26T05:18:01.204Z,-1.1
2023-01-26T05:21:01.222Z,-1.1
2023-01-26T05:24:01.237Z,-1.1
2023-01-26T05:27:01.083Z,-1.1
2023-01-26T05:30:01.309Z,-1.1
2023-01-26T05:33:01.120Z,-1.1
2023-01-26T05:36:01.123Z,-1.1
2023-01-26T05:39:01.079Z,-1.1
2023-01-26T05:42:01.079Z,-1.1
2023-01-26T05:45:01.153Z,-1.1
2023-01-26T05:48:01.075Z,-1.1
2023-01-26T05:51:04.146Z,-1
2023-01-26T05:54:01.132Z,-1
2023-01-26T05:57:01.091Z,-1
2023-01-26T06:00:01.118Z,-1
2023-01-26T06:03:01.110Z,-1
2023-01-26T06:06:01.146Z,-1
2023-01-26T06:09:01.105Z,-1
2023-01-26T06:12:01.135Z,-1
2023-01-26T06:15:01.095Z,-1
2023-01-26T06:18:01.095Z,-1
2023-01-26T06:21:01.092Z,-1
2023-01-26T06:24:01.285Z,-1
2023-01-26T06:27:01.078Z,-1
2023-01-26T06:30:01.169Z,-1
2023-01-26T06:33:01.068Z,-1
2023-01-26T06:36:01.103Z,-1
2023-01-26T06:39:01.308Z,-1
2023-01-26T06:42:01.125Z,-1
2023-01-26T06:45:01.133Z,-0.9
2023-01-26T06:48:01.093Z,-0.9
2023-01-26T06:51:01.082Z,-0.9
2023-01-26T06:54:01.107Z,-0.9
2023-01-26T06:57:01.228Z,-0.9
2023-01-26T07:00:01.160Z,-0.9
2023-01-26T07:03:01.119Z,-0.9
2023-01-26T07:06:01.140Z,-0.9
2023-01-26T07:09:01.307Z,-0.9
2023-01-26T07:12:01.185Z,-0.9
2023-01-26T07:15:01.177Z,-0.9
2023-01-26T07:18:01.235Z,-0.9
2023-01-26T07:21:01.274Z,-0.9
2023-01-26T07:24:01.229Z,-0.9
2023-01-26T07:27:01.114Z,-0.9
2023-01-26T07:30:01.329Z,-0.9
2023-01-26T07:33:01.200Z,-0.9
2023-01-26T07:36:01.232Z,-0.9
2023-01-26T07:39:01.285Z,-0.9
2023-01-26T07:42:01.329Z,-0.9
2023-01-26T07:45:01.203Z,-0.8
2023-01-26T07:48:01.204Z,-0.8
2023-01-26T07:51:01.189Z,-0.8
2023-01-26T07:54:01.137Z,-0.8
2023-01-26T07:57:01.404Z,-0.8
2023-01-26T08:00:01.897Z,-0.8
2023-01-26T08:03:01.801Z,-0.8
2023-01-26T08:06:01.490Z,-0.8
2023-01-26T08:09:01.318Z,-0.8
2023-01-26T08:12:01.367Z,-0.8
2023-01-26T08:15:01.245Z,-0.8
2023-01-26T08:18:01.213Z,-0.8
2023-01-26T08:21:01.164Z,-0.8
2023-01-26T08:24:01.328Z,-0.8
2023-01-26T08:27:01.149Z,-0.8
2023-01-26T08:30:01.373Z,-0.8
2023-01-26T08:33:01.562Z,-0.8
2023-01-26T08:36:01.631Z,-0.8
2023-01-26T08:39:01.301Z,-0.8
2023-01-26T08:42:01.586Z,-0.8
2023-01-26T08:45:01.526Z,-0.6
2023-01-26T08:48:01.465Z,-0.6
2023-01-26T08:51:01.311Z,-0.6
2023-01-26T08:54:01.217Z,-0.6
2023-01-26T08:57:01.515Z,-0.5
2023-01-26T09:00:01.572Z,-0.5
2023-01-26T09:03:01.692Z,-0.5
2023-01-26T09:06:01.533Z,-0.5
2023-01-26T09:09:01.966Z,-0.5
2023-01-26T09:12:02.148Z,-0.5
2023-01-26T09:15:01.783Z,-0.5
2023-01-26T09:18:01.529Z,-0.5
2023-01-26T09:21:01.478Z,-0.5
2023-01-26T09:24:01.730Z,-0.5
2023-01-26T09:27:01.413Z,-0.5
2023-01-26T09:30:01.337Z,-0.5
2023-01-26T09:33:01.316Z,-0.5
2023-01-26T09:36:01.212Z,-0.5
2023-01-26T09:39:01.784Z,-0.5
2023-01-26T09:42:01.184Z,-0.5
2023-01-26T09:45:01.154Z,-0.5
2023-01-26T09:48:01.344Z,-0.2
2023-01-26T09:51:01.180Z,-0.2
2023-01-26T09:54:01.207Z,-0.2
2023-01-26T09:57:01.223Z,-0.2
2023-01-26T10:00:01.261Z,-0.2
2023-01-26T10:03:01.426Z,-0.2
2023-01-26T10:06:01.136Z,-0.2
2023-01-26T10:09:01.160Z,-0.2
2023-01-26T10:12:01.129Z,-0.2
2023-01-26T10:15:01.192Z,-0.2
2023-01-26T10:18:01.195Z,0
2023-01-26T10:21:01.172Z,0
2023-01-26T10:24:01.346Z,0
2023-01-26T10:27:01.204Z,0
2023-01-26T10:30:01.266Z,0
2023-01-26T10:33:01.152Z,0
2023-01-26T10:36:01.164Z,0
2023-01-26T10:39:01.217Z,0
2023-01-26T10:42:01.238Z,0
2023-01-26T10:45:01.135Z,0
2023-01-26T10:48:01.237Z,0.2
2023-01-26T10:51:02.608Z,0.2
2023-01-26T10:54:01.186Z,0.2
2023-01-26T10:57:01.184Z,0.2
2023-01-26T11:00:01.407Z,0.2
2023-01-26T11:03:01.308Z,0.2
2023-01-26T11:06:01.409Z,0.2
2023-01-26T11:09:01.539Z,0.2
2023-01-26T11:12:01.245Z,0.2
2023-01-26T11:15:01.666Z,0.2
2023-01-26T11:18:01.168Z,0.2
2023-01-26T11:21:01.448Z,0.2
2023-01-26T11:24:01.224Z,0.2
2023-01-26T11:27:01.199Z,0.4
2023-01-26T11:30:01.312Z,0.4
2023-01-26T11:33:01.266Z,0.4
2023-01-26T11:36:01.140Z,0.4
2023-01-26T11:39:01.200Z,0.5
2023-01-26T11:42:01.620Z,0.5
2023-01-26T11:45:01.265Z,0.5
2023-01-26T11:48:01.218Z,0.5
2023-01-26T11:51:01.252Z,0.5
2023-01-26T11:54:01.157Z,0.5
2023-01-26T11:57:01.169Z,0.6
2023-01-26T12:00:01.298Z,0.6
2023-01-26T12:03:01.278Z,0.6
2023-01-26T12:06:01.212Z,0.6
2023-01-26T12:09:01.676Z,0.6
2023-01-26T12:12:01.205Z,0.6
2023-01-26T12:15:01.266Z,0.6
2023-01-26T12:18:01.155Z,0.6
2023-01-26T12:21:01.183Z,0.6
2023-01-26T12:24:01.246Z,0.6
2023-01-26T12:27:01.159Z,0.6
2023-01-26T12:30:01.160Z,0.6
2023-01-26T12:33:01.140Z,0.5
2023-01-26T12:36:01.169Z,0.5
2023-01-26T12:39:01.336Z,0.5
2023-01-26T12:42:01.354Z,0.5
2023-01-26T12:45:01.119Z,0.5
2023-01-26T12:48:01.244Z,0.5
2023-01-26T12:51:01.182Z,0.5
2023-01-26T12:54:01.117Z,0.6
2023-01-26T12:57:01.180Z,0.6
2023-01-26T13:00:01.228Z,0.6
2023-01-26T13:03:01.173Z,0.6
2023-01-26T13:06:01.130Z,0.6
2023-01-26T13:09:01.194Z,0.6
2023-01-26T13:12:01.183Z,0.6
2023-01-26T13:15:01.188Z,0.6
2023-01-26T13:18:01.168Z,0.6
2023-01-26T13:21:01.213Z,0.6
2023-01-26T13:24:01.231Z,0.6
2023-01-26T13:27:01.116Z,0.6
2023-01-26T13:30:01.191Z,0.6
2023-01-26T13:33:01.098Z,0.8
2023-01-26T13:36:01.176Z,0.8
2023-01-26T13:39:01.162Z,0.8
2023-01-26T13:42:01.211Z,0.8
2023-01-26T13:45:01.200Z,0.8
2023-01-26T13:48:01.675Z,0.8
2023-01-26T13:51:01.145Z,0.8
2023-01-26T13:54:01.114Z,0.8
2023-01-26T13:57:01.200Z,0.8
2023-01-26T14:00:01.323Z,0.8
2023-01-26T14:03:01.261Z,0.8
2023-01-26T14:06:01.113Z,0.8
2023-01-26T14:09:01.157Z,0.8
2023-01-26T14:12:01.311Z,0.8
2023-01-26T14:15:01.168Z,0.8
2023-01-26T14:18:01.222Z,0.8
2023-01-26T14:21:01.360Z,0.8
2023-01-26T14:24:01.288Z,0.8
2023-01-26T14:27:01.228Z,0.7
2023-01-26T14:30:01.276Z,0.7
2023-01-26T14:33:01.140Z,0.7
2023-01-26T14:36:01.314Z,0.7
2023-01-26T14:39:01.207Z,0.7
2023-01-26T14:42:01.179Z,0.7
2023-01-26T14:45:01.263Z,0.6
2023-01-26T14:48:01.153Z,0.6
2023-01-26T14:51:01.117Z,0.6
2023-01-26T14:54:01.380Z,0.6
2023-01-26T14:57:01.149Z,0.6
2023-01-26T15:00:01.197Z,0.6
2023-01-26T15:03:01.132Z,0.6
2023-01-26T15:06:01.172Z,0.6
2023-01-26T15:09:01.232Z,0.6
2023-01-26T15:12:01.148Z,0.6
2023-01-26T15:15:01.158Z,0.6
2023-01-26T15:18:01.697Z,0.6
2023-01-26T15:21:01.303Z,0.7
2023-01-26T15:24:01.227Z,0.7
2023-01-26T15:27:01.207Z,0.7
2023-01-26T15:30:01.132Z,0.7
2023-01-26T15:33:01.342Z,0.7
2023-01-26T15:36:01.156Z,0.7
2023-01-26T15:39:01.138Z,0.7
2023-01-26T15:42:01.145Z,0.7
2023-01-26T15:45:01.136Z,0.7
2023-01-26T15:48:01.158Z,0.7
2023-01-26T15:51:01.144Z,0.7
2023-01-26T15:54:01.243Z,0.7
2023-01-26T15:57:01.187Z,0.7
2023-01-26T16:00:01.370Z,0.7
2023-01-26T16:03:01.069Z,0.7
2023-01-26T16:06:01.083Z,0.7
2023-01-26T16:09:01.113Z,0.7
2023-01-26T16:12:01.162Z,0.6
2023-01-26T16:15:01.129Z,0.6
2023-01-26T16:18:01.150Z,0.6
2023-01-26T16:21:01.106Z,0.6
2023-01-26T16:24:01.220Z,0.6
2023-01-26T16:27:01.148Z,0.6
2023-01-26T16:30:01.162Z,0.6
2023-01-26T16:33:01.148Z,0.6
2023-01-26T16:36:01.721Z,0.6
2023-01-26T16:39:01.114Z,0.6
2023-01-26T16:42:01.308Z,0.6
2023-01-26T16:45:01.179Z,0.6
2023-01-26T16:48:01.130Z,0.6
2023-01-26T16:51:01.142Z,0.6
2023-01-26T16:54:01.076Z,0.6
2023-01-26T16:57:01.211Z,0.6
2023-01-26T17:00:01.172Z,0.6
2023-01-26T17:03:01.195Z,0.6
2023-01-26T17:06:01.083Z,0.6
2023-01-26T17:09:01.231Z,0.6
2023-01-26T17:12:01.138Z,0.8
2023-01-26T17:15:01.131Z,0.8
2023-01-26T17:18:01.130Z,0.8
2023-01-26T17:21:01.103Z,0.8
2023-01-26T17:24:01.179Z,0.8
2023-01-26T17:27:01.085Z,0.8
2023-01-26T17:30:01.095Z,0.8
2023-01-26T17:33:01.150Z,0.8
2023-01-26T17:36:01.242Z,0.8
2023-01-26T17:39:01.114Z,0.8
2023-01-26T17:42:01.121Z,0.8
2023-01-26T17:45:01.133Z,0.8
2023-01-26T17:48:01.368Z,0.8
2023-01-26T17:51:01.107Z,0.8
2023-01-26T17:54:01.180Z,0.8
2023-01-26T17:57:01.160Z,0.8
2023-01-26T18:00:01.212Z,0.8
2023-01-26T18:03:01.142Z,0.8
2023-01-26T18:06:01.070Z,0.8
2023-01-26T18:09:01.221Z,0.8
2023-01-26T18:12:01.211Z,0.8
2023-01-26T18:15:01.268Z,0.8
2023-01-26T18:18:01.085Z,0.8
2023-01-26T18:21:01.143Z,0.8
2023-01-26T18:24:01.170Z,0.8
2023-01-26T18:27:01.167Z,0.8
2023-01-26T18:30:01.435Z,0.8
2023-01-26T18:33:01.160Z,0.8
2023-01-26T18:36:01.131Z,0.8
2023-01-26T18:39:01.139Z,0.8
2023-01-26T18:42:01.284Z,0.8
2023-01-26T18:45:01.155Z,0.8
2023-01-26T18:48:01.844Z,0.8
2023-01-26T18:51:01.445Z,0.8
2023-01-26T18:54:01.255Z,0.8
2023-01-26T18:57:02.100Z,0.8
2023-01-26T19:00:02.045Z,0.8
2023-01-26T19:03:01.097Z,0.8
2023-01-26T19:06:01.157Z,0.8
2023-01-26T19:09:01.613Z,0.8
2023-01-26T19:12:01.872Z,0.8
2023-01-26T19:15:01.373Z,0.8
2023-01-26T19:18:01.647Z,0.8
2023-01-26T19:21:01.324Z,0.8
2023-01-26T19:24:01.688Z,0.8
2023-01-26T19:27:01.388Z,0.8
2023-01-26T19:30:01.360Z,0.8
2023-01-26T19:33:01.218Z,0.8
2023-01-26T19:36:01.846Z,0.8
2023-01-26T19:39:01.164Z,0.8
2023-01-26T19:42:01.405Z,0.8
2023-01-26T19:45:01.575Z,0.8
2023-01-26T19:48:01.233Z,0.8
2023-01-26T19:51:01.189Z,0.8
2023-01-26T19:54:01.184Z,0.8
2023-01-26T19:57:01.160Z,0.8
2023-01-26T20:00:01.122Z,0.8
2023-01-26T20:03:01.181Z,0.8
2023-01-26T20:06:01.105Z,0.8
2023-01-26T20:09:01.152Z,0.8
2023-01-26T20:12:01.110Z,0.8
2023-01-26T20:15:01.243Z,0.8
2023-01-26T20:18:01.192Z,0.8
2023-01-26T20:21:01.447Z,0.8
2023-01-26T20:24:06.695Z,0.8
2023-01-26T20:27:01.171Z,0.8
2023-01-26T20:30:01.233Z,0.8
2023-01-26T20:33:01.142Z,0.8
2023-01-26T20:36:01.171Z,0.8
2023-01-26T20:39:01.172Z,0.8
2023-01-26T20:42:01.129Z,0.8
2023-01-26T20:45:01.200Z,0.8
2023-01-26T20:48:01.230Z,0.8
2023-01-26T20:51:01.154Z,0.8
2023-01-26T20:54:01.141Z,0.8
2023-01-26T20:57:01.131Z,0.8
2023-01-26T21:00:01.534Z,0.8
2023-01-26T21:03:01.248Z,0.8
2023-01-26T21:06:01.140Z,0.8
2023-01-26T21:09:01.218Z,0.8
2023-01-26T21:12:01.172Z,0.8
2023-01-26T21:15:01.185Z,0.8
2023-01-26T21:18:01.136Z,0.8
2023-01-26T21:21:01.224Z,0.8
2023-01-26T21:24:01.521Z,0.8
2023-01-26T21:27:01.117Z,0.8
2023-01-26T21:30:01.238Z,0.8
2023-01-26T21:33:01.144Z,0.8
2023-01-26T21:36:01.223Z,0.8
2023-01-26T21:39:01.140Z,0.8
2023-01-26T21:42:01.153Z,0.8
2023-01-26T21:45:01.245Z,0.8
2023-01-26T21:48:01.186Z,0.8
2023-01-26T21:51:01.341Z,0.8
2023-01-26T21:54:01.436Z,0.8
2023-01-26T21:57:01.431Z,0.8
2023-01-26T22:00:01.754Z,0.8
2023-01-26T22:03:01.267Z,0.8
2023-01-26T22:06:01.160Z,0.8
2023-01-26T22:09:01.473Z,0.8
2023-01-26T22:12:01.216Z,0.8
2023-01-26T22:15:01.552Z,0.8
2023-01-26T22:18:01.159Z,0.8
2023-01-26T22:21:02.637Z,0.8
2023-01-26T22:24:01.270Z,0.8
2023-01-26T22:27:01.141Z,0.8
2023-01-26T22:30:01.333Z,0.8
2023-01-26T22:33:01.269Z,0.8
2023-01-26T22:36:01.137Z,0.8
2023-01-26T22:39:01.192Z,0.8
2023-01-26T22:42:01.138Z,0.8
2023-01-26T22:45:01.185Z,0.8
2023-01-26T22:48:01.133Z,0.8
2023-01-26T22:51:01.099Z,0.8
2023-01-26T22:54:01.195Z,0.8
2023-01-26T22:57:01.082Z,0.8
2023-01-26T23:00:02.477Z,0.8
2023-01-26T23:03:01.106Z,0.8
2023-01-26T23:06:01.194Z,0.8
2023-01-26T23:09:01.312Z,0.8
2023-01-26T23:12:01.094Z,0.8
2023-01-26T23:15:01.037Z,0.8
2023-01-26T23:18:01.125Z,0.8
2023-01-26T23:21:01.105Z,0.8
2023-01-26T23:24:01.275Z,0.8
2023-01-26T23:27:01.147Z,0.8
2023-01-26T23:30:03.636Z,0.8
2023-01-26T23:33:01.068Z,0.8
2023-01-26T23:36:01.090Z,0.8
2023-01-26T23:39:01.130Z,0.8
2023-01-26T23:42:01.062Z,0.8
2023-01-26T23:45:01.067Z,0.8
2023-01-26T23:48:01.095Z,0.8
2023-01-26T23:51:01.220Z,0.8
2023-01-26T23:54:01.095Z,0.8
2023-01-26T23:57:01.108Z,0.8
